East Texas Regional Airport
KGGG : now visible

Airfield :











YOU CAN JOIN US ON...

 
LOGIN :

Register | Disclaimer

   EN    FR    IT 

 









Legend :    VFR   Marginal VFR   IFR   Intensive IFR   Very Intensive IFR
Visi :
Ceiling :
>= 8 km
>= 3000ft
5 to 8 km
1000 to 3000 ft
1500m to 5 km
500 to 1000 ft
800 to 1500m
200 to 500 ft
< 800m
< 200 ft
Symbols :   Thunderstorms  Fog  Heavy snow  Heavy precipitations  Wind > 20 kt






- Airport Elevation : 365 ft
- IATA code : GGG


KGGG - East Texas Regional

CURRENT METAR :
  • 281753Z 16005KT 10SM OVC110 23/17 A2998 RMK AO2 SLP148 60000 T02280167 10233 20183 50006

EXPIRED METARs :
  • 281653Z 15009KT 10SM SCT100 BKN120 23/17 A2999 RMK AO2 SLP150 T02330167
  • 281553Z 16011KT 10SM FEW045 SCT060 BKN080 22/18 A2998 RMK AO2 RAB11E41 SLP147 P0000 T02220178

TAF KGGG
Valid from the 28 at 18:00 until the 29 at 18:00 UTC


281738Z 2818/2918 25005KT P6SM VCSH SCT020 BKN040
FM282100 27006KT P6SM VCTS SCT030 BKN050CB
FM290000 28005KT P6SM SCT035 BKN100
FM290300 31003KT P6SM SCT025 SCT100
FM291000 32003KT P6SM BKN015
FM291200 34004KT P6SM OVC007
FM291600 02009G15KT P6SM OVC025
KZFW FIR / North America



MET'MAP, your aeronautical weather chart ! - Copyright ORBIFLY December 2007 - Disclaimer

ORBIFLY MET'MAP TEAM :

Programming & Development : Alexandra Zaïnal
Concept & original design : Baudouin d'Aumeries
Assistance for programming : Marc-Olivier Méhu
Technical & hardware support : Manuel Goepfert

Contact : metmap@orbifly.com




SOURCES & CREDITS :

   NOAA       Earth
Advisory